Zarephath, New Jersey
Current Conditions -  °F | °C
As of 4:53 AM on Tuesday 21 Oct 2014 (Local Time) from KSMQ Reporting Station
Light Rain Light Rain  
Wind Chill: 47°   Ceiling: 5000
Heat Index: 47°   Visibility: 10mi
Dew Point: 44°   Wind: 0mph
Humidity: 90%   Direction: NA
Pressure: 29.89"   Gusts: NA
Location:  40.54°N, 74.57°W
Report Text: KSMQ 210853Z AUTO 00000KT 10SM -RA BKN050 OVC065 08/07 A2989 RMK AO2 RAB22 SLP123 P0000 60000 T00830067 57006
Loading
Personal Weather Stations






























Interactive Weather Map
Tropical Storm Tracking
New forecast layout! Learn more

10-Day Weather Forecast

Advertisements
Track Severe Weather on mobile